createdAt,value
2018-12-13T00:01:06.550Z,3.60
2018-12-13T00:03:37.850Z,3.60
2018-12-13T00:06:08.804Z,3.60
2018-12-13T00:08:37.785Z,3.60
2018-12-13T00:11:06.724Z,3.60
2018-12-13T00:13:35.653Z,3.60
2018-12-13T00:16:05.632Z,2.00
2018-12-13T00:18:34.631Z,3.60
2018-12-13T00:21:03.724Z,3.60
2018-12-13T00:23:32.599Z,3.60
2018-12-13T00:26:01.517Z,3.60
2018-12-13T00:28:30.379Z,3.60
2018-12-13T00:30:59.220Z,3.60
2018-12-13T00:33:28.110Z,3.60
2018-12-13T00:36:08.858Z,3.60
2018-12-13T00:38:37.723Z,3.60
2018-12-13T00:41:10.099Z,3.60
2018-12-13T00:43:39.939Z,3.60
2018-12-13T00:46:08.980Z,2.70
2018-12-13T00:48:37.876Z,3.70
2018-12-13T00:51:06.725Z,3.70
2018-12-13T00:53:35.601Z,3.60
2018-12-13T00:56:04.568Z,3.60
2018-12-13T00:58:33.494Z,3.60
2018-12-13T01:01:02.593Z,3.60
2018-12-13T01:03:31.535Z,3.70
2018-12-13T01:06:00.433Z,3.70
2018-12-13T01:08:30.261Z,3.70
2018-12-13T01:10:59.103Z,3.60
2018-12-13T01:13:28.123Z,3.60
2018-12-13T01:15:57.021Z,3.70
2018-12-13T01:18:25.999Z,3.70
2018-12-13T01:20:54.939Z,3.60
2018-12-13T01:23:24.052Z,3.60
2018-12-13T01:25:53.919Z,3.50
2018-12-13T01:28:22.791Z,3.50
2018-12-13T01:30:51.832Z,3.40
2018-12-13T01:33:20.682Z,3.20
2018-12-13T01:35:49.613Z,3.10
2018-12-13T01:38:18.505Z,3.00
2018-12-13T01:40:47.406Z,2.90
2018-12-13T01:43:19.876Z,2.80
2018-12-13T01:45:48.802Z,2.80
2018-12-13T01:48:17.697Z,2.70
2018-12-13T01:50:46.597Z,2.70
2018-12-13T01:53:15.466Z,2.60
2018-12-13T01:55:44.324Z,2.60
2018-12-13T01:58:13.253Z,2.50
2018-12-13T02:05:47.139Z,2.40
2018-12-13T02:08:16.028Z,2.30
2018-12-13T02:10:45.013Z,2.20
2018-12-13T02:13:13.927Z,2.30
2018-12-13T02:15:42.873Z,2.30
2018-12-13T02:18:11.752Z,2.30
2018-12-13T02:20:40.637Z,2.20
2018-12-13T02:23:09.474Z,2.20
2018-12-13T02:25:38.504Z,2.10
2018-12-13T02:28:07.488Z,2.10
2018-12-13T02:30:36.407Z,2.10
2018-12-13T02:33:05.200Z,2.10
2018-12-13T02:35:34.096Z,2.00
2018-12-13T02:38:03.291Z,2.10
2018-12-13T02:40:32.240Z,2.00
2018-12-13T02:43:01.161Z,2.00
2018-12-13T02:45:30.114Z,2.00
2018-12-13T02:47:59.066Z,1.90
2018-12-13T02:50:29.154Z,2.00
2018-12-13T02:53:02.806Z,1.90
2018-12-13T02:55:32.482Z,1.90
2018-12-13T02:58:01.592Z,1.90
2018-12-13T03:00:30.536Z,1.90
2018-12-13T03:02:59.471Z,1.90
2018-12-13T03:05:28.397Z,1.90
2018-12-13T03:07:57.663Z,1.80
2018-12-13T03:10:26.820Z,1.80
2018-12-13T03:12:55.897Z,1.80
2018-12-13T03:15:24.815Z,1.70
2018-12-13T03:17:54.214Z,1.70
2018-12-13T03:20:23.214Z,1.60
2018-12-13T03:22:52.152Z,1.60
2018-12-13T03:25:21.105Z,1.60
2018-12-13T03:27:50.048Z,1.70
2018-12-13T03:30:23.725Z,1.70
2018-12-13T03:32:52.643Z,1.70
2018-12-13T03:35:21.601Z,1.60
2018-12-13T03:37:52.460Z,1.60
2018-12-13T03:40:21.390Z,1.60
2018-12-13T03:42:50.449Z,1.70
2018-12-13T03:45:20.264Z,1.70
2018-12-13T03:47:49.344Z,1.70
2018-12-13T03:50:18.241Z,1.70
2018-12-13T03:52:47.159Z,1.70
2018-12-13T03:55:16.081Z,1.70
2018-12-13T03:57:45.129Z,1.70
2018-12-13T04:00:13.977Z,1.70
2018-12-13T04:02:43.007Z,1.70
2018-12-13T04:05:11.897Z,1.60
2018-12-13T04:07:42.343Z,1.60
2018-12-13T04:10:11.330Z,1.60
2018-12-13T04:17:45.084Z,1.40
2018-12-13T04:20:15.903Z,1.40
2018-12-13T04:22:44.755Z,1.40
2018-12-13T04:25:16.549Z,1.30
2018-12-13T04:27:45.574Z,1.40
2018-12-13T04:30:14.455Z,1.30
2018-12-13T04:32:43.259Z,1.30
2018-12-13T04:35:12.267Z,1.30
2018-12-13T04:37:41.117Z,1.20
2018-12-13T04:45:15.010Z,1.20
2018-12-13T04:47:43.943Z,1.10
2018-12-13T04:50:12.850Z,1.10
2018-12-13T04:52:41.745Z,1.10
2018-12-13T04:55:10.691Z,1.00
2018-12-13T04:57:39.665Z,1.00
2018-12-13T05:00:09.281Z,1.00
2018-12-13T05:02:38.195Z,1.00
2018-12-13T05:05:07.301Z,1.00
2018-12-13T05:07:41.521Z,2.50
2018-12-13T05:10:07.603Z,1.00
2018-12-13T05:12:36.563Z,1.00
2018-12-13T05:15:05.933Z,0.90
2018-12-13T05:17:34.956Z,0.90
2018-12-13T05:20:04.588Z,0.90
2018-12-13T05:22:33.516Z,0.90
2018-12-13T05:25:02.404Z,0.80
2018-12-13T05:27:31.390Z,1.00
2018-12-13T05:30:00.349Z,0.90
2018-12-13T05:32:29.250Z,1.00
2018-12-13T05:40:02.801Z,0.90
2018-12-13T05:42:32.360Z,0.80
2018-12-13T05:45:01.339Z,0.90
2018-12-13T05:47:30.243Z,0.80
2018-12-13T05:49:59.266Z,0.80
2018-12-13T05:52:28.221Z,0.80
2018-12-13T05:54:57.108Z,0.80
2018-12-13T05:57:26.091Z,0.70
2018-12-13T05:59:55.084Z,0.70
2018-12-13T06:07:29.194Z,0.70
2018-12-13T06:09:57.989Z,0.60
2018-12-13T06:12:26.865Z,0.60
2018-12-13T06:14:55.788Z,0.60
2018-12-13T06:17:25.870Z,0.60
2018-12-13T06:19:55.027Z,0.50
2018-12-13T06:22:25.105Z,0.50
2018-12-13T06:24:54.061Z,0.50
2018-12-13T06:27:23.111Z,0.50
2018-12-13T06:29:58.533Z,0.40
2018-12-13T06:32:23.200Z,0.40
2018-12-13T06:34:52.454Z,0.50
2018-12-13T06:37:21.368Z,0.40
2018-12-13T06:39:50.351Z,0.40
2018-12-13T06:42:19.247Z,0.30
2018-12-13T06:44:48.101Z,0.30
2018-12-13T06:47:16.992Z,0.40
2018-12-13T06:49:45.990Z,0.40
2018-12-13T06:52:14.950Z,0.40
2018-12-13T06:54:43.987Z,0.30
2018-12-13T06:57:13.445Z,0.30
2018-12-13T06:59:42.480Z,0.30
2018-12-13T07:02:11.502Z,0.30
2018-12-13T07:04:40.351Z,0.30
2018-12-13T07:07:09.278Z,0.30
2018-12-13T07:09:38.239Z,0.30
2018-12-13T07:12:07.227Z,0.20
2018-12-13T07:14:36.335Z,0.20
2018-12-13T07:17:06.304Z,0.20
2018-12-13T07:19:35.523Z,0.20
2018-12-13T07:22:04.819Z,0.30
2018-12-13T07:24:41.184Z,0.20
2018-12-13T07:27:10.346Z,0.30
2018-12-13T07:29:40.683Z,0.20
2018-12-13T07:32:09.684Z,0.20
2018-12-13T07:34:38.774Z,0.20
2018-12-13T07:37:07.641Z,0.20
2018-12-13T07:39:36.611Z,0.20
2018-12-13T07:42:05.639Z,0.20
2018-12-13T07:44:34.520Z,0.30
2018-12-13T07:47:03.419Z,0.20
2018-12-13T07:49:32.319Z,0.30
2018-12-13T07:52:01.322Z,0.40
2018-12-13T07:54:30.158Z,0.40
2018-12-13T07:56:59.104Z,0.40
2018-12-13T07:59:27.944Z,0.50
2018-12-13T08:01:56.819Z,0.50
2018-12-13T08:04:25.798Z,0.60
2018-12-13T08:06:54.863Z,0.80
2018-12-13T08:09:23.832Z,1.20
2018-12-13T08:11:52.922Z,1.50
2018-12-13T08:14:23.192Z,1.80
2018-12-13T08:16:52.207Z,2.20
2018-12-13T08:19:23.333Z,2.60
2018-12-13T08:21:54.140Z,2.50
2018-12-13T08:24:23.205Z,2.50
2018-12-13T08:26:54.099Z,2.80
2018-12-13T08:29:23.124Z,3.10
2018-12-13T08:31:51.973Z,3.50
2018-12-13T08:34:20.863Z,3.80
2018-12-13T08:36:49.740Z,4.60
2018-12-13T08:39:18.663Z,4.20
2018-12-13T08:41:48.254Z,4.20
2018-12-13T08:44:17.204Z,4.40
2018-12-13T08:46:46.159Z,4.50
2018-12-13T08:49:15.044Z,4.70
2018-12-13T08:51:43.910Z,5.20
2018-12-13T08:56:49.299Z,6.00
2018-12-13T08:59:18.248Z,6.60
2018-12-13T09:01:47.243Z,6.80
2018-12-13T09:04:16.265Z,7.20
2018-12-13T09:06:45.169Z,7.10
2018-12-13T09:09:14.167Z,7.40
2018-12-13T09:11:43.062Z,7.40
2018-12-13T09:19:16.348Z,7.40
2018-12-13T09:21:45.574Z,7.00
2018-12-13T09:24:14.722Z,6.80
2018-12-13T09:26:43.543Z,6.70
2018-12-13T09:29:12.480Z,6.70
2018-12-13T09:31:41.543Z,6.50
2018-12-13T09:34:10.566Z,6.50
2018-12-13T09:38:27.441Z,6.70
2018-12-13T09:40:56.587Z,6.30
2018-12-13T09:43:25.593Z,6.30
2018-12-13T09:45:54.639Z,5.90
2018-12-13T09:48:23.552Z,6.10
2018-12-13T09:50:52.669Z,5.90
2018-12-13T09:53:21.594Z,5.70
2018-12-13T09:55:51.485Z,6.00
2018-12-13T09:58:20.428Z,5.90
2018-12-13T10:00:49.479Z,5.50
2018-12-13T10:03:18.422Z,5.50
2018-12-13T10:05:47.542Z,5.10
2018-12-13T10:08:17.088Z,5.10
2018-12-13T10:10:46.394Z,5.40
2018-12-13T10:13:15.770Z,5.30
2018-12-13T10:15:44.924Z,5.20
2018-12-13T10:18:57.983Z,5.10
2018-12-13T10:21:27.087Z,5.10
2018-12-13T10:23:56.337Z,5.30
2018-12-13T10:26:25.502Z,5.60
2018-12-13T10:28:54.509Z,5.70
2018-12-13T10:36:21.551Z,5.20
2018-12-13T10:38:53.229Z,4.80
2018-12-13T10:41:21.336Z,4.20
2018-12-13T10:43:50.260Z,3.80
2018-12-13T10:46:19.354Z,3.60
2018-12-13T10:48:48.212Z,3.50
2018-12-13T10:51:17.157Z,3.30
2018-12-13T10:53:46.142Z,3.30
2018-12-13T10:56:15.198Z,3.30
2018-12-13T10:58:44.095Z,3.30
2018-12-13T11:01:18.480Z,3.30
2018-12-13T11:03:47.446Z,3.30
2018-12-13T11:06:16.397Z,3.30
2018-12-13T11:08:45.527Z,3.20
2018-12-13T11:11:14.356Z,3.40
2018-12-13T11:13:43.462Z,3.40
2018-12-13T11:16:12.355Z,3.20
2018-12-13T11:18:41.309Z,3.20
2018-12-13T11:21:10.241Z,3.10
2018-12-13T11:23:39.250Z,3.20
2018-12-13T11:26:08.156Z,2.10
2018-12-13T11:29:46.668Z,3.20
2018-12-13T11:32:15.648Z,3.20
2018-12-13T11:34:44.546Z,3.20
2018-12-13T11:37:13.422Z,3.20
2018-12-13T11:39:42.295Z,3.30
2018-12-13T11:42:11.216Z,3.40
2018-12-13T11:44:40.201Z,3.40
2018-12-13T11:47:09.099Z,3.30
2018-12-13T11:49:38.043Z,3.30
2018-12-13T11:52:07.006Z,3.40
2018-12-13T11:54:42.288Z,3.40
2018-12-13T11:57:11.743Z,3.30
2018-12-13T11:59:40.634Z,3.20
2018-12-13T12:02:09.578Z,3.30
2018-12-13T12:04:38.517Z,3.30
2018-12-13T12:07:07.381Z,3.30
2018-12-13T12:09:36.460Z,3.40
2018-12-13T12:12:05.651Z,3.50
2018-12-13T12:14:34.545Z,3.60
2018-12-13T12:17:03.511Z,3.60
2018-12-13T12:19:32.408Z,3.70
2018-12-13T12:22:01.370Z,3.50
2018-12-13T12:27:13.789Z,3.50
2018-12-13T12:29:44.022Z,3.50
2018-12-13T12:32:14.214Z,3.50
2018-12-13T12:34:43.220Z,3.60
2018-12-13T12:37:12.161Z,3.50
2018-12-13T12:39:41.117Z,3.50
2018-12-13T12:42:10.045Z,3.60
2018-12-13T12:44:41.559Z,3.60
2018-12-13T12:47:11.784Z,3.50
2018-12-13T12:49:40.900Z,3.50
2018-12-13T12:52:10.052Z,3.60
2018-12-13T12:54:38.969Z,3.60
2018-12-13T12:57:07.904Z,3.70
2018-12-13T12:59:38.506Z,3.70
2018-12-13T13:02:07.719Z,3.60
2018-12-13T13:04:36.798Z,3.50
2018-12-13T13:07:05.739Z,3.60
2018-12-13T13:09:34.686Z,3.50
2018-12-13T13:12:03.702Z,3.50
2018-12-13T13:14:32.869Z,3.50
2018-12-13T13:17:01.709Z,3.50
2018-12-13T13:19:30.766Z,3.50
2018-12-13T13:21:59.624Z,3.40
2018-12-13T13:24:28.596Z,3.40
2018-12-13T13:26:58.483Z,3.40
2018-12-13T13:29:27.361Z,3.40
2018-12-13T13:31:56.212Z,3.50
2018-12-13T13:34:25.424Z,3.40
2018-12-13T13:36:54.421Z,3.30
2018-12-13T13:39:23.293Z,3.20
2018-12-13T13:41:52.173Z,3.20
2018-12-13T13:44:21.495Z,3.20
2018-12-13T13:46:50.405Z,3.30
2018-12-13T13:54:23.440Z,3.30
2018-12-13T13:56:52.322Z,3.20
2018-12-13T13:59:22.345Z,3.10
2018-12-13T14:01:51.312Z,3.10
2018-12-13T14:04:20.342Z,3.10
2018-12-13T14:06:49.387Z,3.00
2018-12-13T14:09:18.305Z,3.10
2018-12-13T14:11:47.400Z,3.10
2018-12-13T14:14:16.362Z,3.00
2018-12-13T14:16:45.417Z,3.00
2018-12-13T14:19:14.348Z,3.00
2018-12-13T14:21:43.208Z,2.90
2018-12-13T14:24:12.073Z,2.90
2018-12-13T14:26:40.997Z,3.00
2018-12-13T14:29:09.991Z,3.00
2018-12-13T14:31:38.983Z,2.90
2018-12-13T14:34:08.051Z,2.90
2018-12-13T14:36:38.855Z,2.80
2018-12-13T14:39:08.164Z,2.80
2018-12-13T14:41:39.047Z,2.70
2018-12-13T14:44:22.776Z,2.70
2018-12-13T14:46:51.927Z,2.70
2018-12-13T14:51:57.204Z,2.60
2018-12-13T14:54:27.360Z,2.60
2018-12-13T14:56:56.458Z,2.70
2018-12-13T14:59:25.295Z,2.80
2018-12-13T15:01:54.451Z,2.80
2018-12-13T15:04:24.358Z,2.90
2018-12-13T15:06:53.367Z,2.90
2018-12-13T15:09:22.209Z,2.90
2018-12-13T15:11:51.068Z,3.00
2018-12-13T15:14:20.016Z,3.00
2018-12-13T15:16:48.913Z,2.90
2018-12-13T15:19:18.370Z,2.80
2018-12-13T15:21:47.355Z,2.70
2018-12-13T15:24:16.304Z,2.60
2018-12-13T15:26:46.302Z,2.50
2018-12-13T15:29:16.965Z,2.50
2018-12-13T15:31:47.262Z,2.40
2018-12-13T15:34:16.146Z,2.40
2018-12-13T15:36:45.115Z,2.30
2018-12-13T15:39:14.030Z,2.30
2018-12-13T15:41:42.920Z,2.30
2018-12-13T15:44:11.773Z,2.30
2018-12-13T15:46:40.872Z,2.20
2018-12-13T15:49:09.858Z,2.40
2018-12-13T15:51:38.855Z,2.40
2018-12-13T15:54:08.636Z,2.50
2018-12-13T15:56:37.440Z,2.50
2018-12-13T15:59:06.390Z,2.60
2018-12-13T16:01:35.239Z,2.60
2018-12-13T16:04:04.291Z,2.60
2018-12-13T16:06:33.225Z,2.70
2018-12-13T16:09:02.412Z,2.70
2018-12-13T16:11:32.719Z,2.70
2018-12-13T16:14:01.615Z,2.70
2018-12-13T16:16:30.637Z,2.70
2018-12-13T16:19:00.049Z,2.70
2018-12-13T16:21:28.999Z,2.70
2018-12-13T16:23:57.903Z,2.80
2018-12-13T16:26:26.726Z,2.80
2018-12-13T16:28:56.179Z,2.80
2018-12-13T16:31:25.061Z,2.80
2018-12-13T16:33:53.973Z,2.70
2018-12-13T16:36:22.980Z,2.60
2018-12-13T16:38:52.019Z,2.70
2018-12-13T16:41:20.946Z,2.60
2018-12-13T16:43:49.998Z,2.60
2018-12-13T16:46:20.907Z,2.60
2018-12-13T16:48:50.668Z,2.60
2018-12-13T16:51:21.037Z,2.60
2018-12-13T16:53:52.582Z,2.60
2018-12-13T16:56:22.351Z,2.60
2018-12-13T16:58:52.565Z,2.60
2018-12-13T17:01:22.176Z,2.60
2018-12-13T17:03:52.863Z,2.60
2018-12-13T17:06:22.719Z,2.50
2018-12-13T17:08:53.518Z,2.60
2018-12-13T17:11:23.794Z,2.60
2018-12-13T17:13:53.544Z,2.60
2018-12-13T17:16:23.826Z,2.50
2018-12-13T17:18:53.828Z,2.60
2018-12-13T17:21:23.650Z,2.60
2018-12-13T17:23:53.786Z,2.50
2018-12-13T17:26:23.780Z,2.50
2018-12-13T17:31:37.168Z,2.50
2018-12-13T17:34:08.142Z,2.40
2018-12-13T17:36:38.025Z,2.40
2018-12-13T17:39:07.931Z,2.30
2018-12-13T17:41:39.867Z,2.30
2018-12-13T17:44:09.931Z,2.20
2018-12-13T17:46:39.760Z,2.20
2018-12-13T17:49:10.746Z,2.10
2018-12-13T17:51:41.328Z,2.00
2018-12-13T17:54:11.094Z,2.10
2018-12-13T17:56:40.494Z,2.20
2018-12-13T17:59:09.731Z,2.20
2018-12-13T18:01:38.768Z,2.20
2018-12-13T18:04:07.680Z,2.20
2018-12-13T18:06:36.821Z,2.30
2018-12-13T18:09:08.022Z,2.40
2018-12-13T18:11:37.276Z,2.40
2018-12-13T18:14:06.324Z,2.40
2018-12-13T18:16:35.246Z,2.40
2018-12-13T18:19:07.495Z,2.40
2018-12-13T18:21:36.410Z,2.50
2018-12-13T18:24:06.318Z,2.50
2018-12-13T18:26:35.216Z,2.50
2018-12-13T18:29:04.362Z,2.50
2018-12-13T18:31:33.364Z,3.50
2018-12-13T18:34:02.494Z,2.60
2018-12-13T18:36:31.503Z,2.50
2018-12-13T18:39:01.588Z,2.40
2018-12-13T18:41:31.730Z,2.20
2018-12-13T18:44:00.681Z,2.20
2018-12-13T18:46:29.632Z,2.10
2018-12-13T18:48:58.700Z,2.00
2018-12-13T18:51:28.420Z,1.90
2018-12-13T18:53:57.433Z,1.90
2018-12-13T18:56:26.489Z,1.80
2018-12-13T18:58:55.482Z,1.70
2018-12-13T19:01:24.597Z,1.70
2018-12-13T19:03:53.470Z,1.60
2018-12-13T19:06:23.580Z,1.60
2018-12-13T19:08:52.521Z,1.60
2018-12-13T19:11:21.497Z,1.60
2018-12-13T19:13:50.517Z,1.50
2018-12-13T19:16:19.574Z,1.40
2018-12-13T19:18:48.508Z,1.50
2018-12-13T19:21:17.501Z,1.50
2018-12-13T19:23:46.432Z,1.50
2018-12-13T19:26:16.401Z,1.50
2018-12-13T19:28:46.454Z,1.40
2018-12-13T19:31:15.388Z,1.40
2018-12-13T19:33:44.329Z,1.40
2018-12-13T19:36:15.700Z,1.40
2018-12-13T19:38:44.768Z,1.40
2018-12-13T19:41:13.800Z,1.40
2018-12-13T19:43:42.957Z,1.40
2018-12-13T19:46:12.057Z,1.40
2018-12-13T19:48:42.050Z,1.50
2018-12-13T19:51:11.266Z,1.50
2018-12-13T19:53:42.069Z,1.50
2018-12-13T19:56:11.960Z,1.60
2018-12-13T19:58:43.478Z,1.70
2018-12-13T20:01:12.754Z,1.70
2018-12-13T20:06:27.575Z,1.70
2018-12-13T20:08:56.456Z,1.80
2018-12-13T20:11:27.017Z,1.80
2018-12-13T20:13:56.161Z,1.80
2018-12-13T20:16:26.469Z,1.80
2018-12-13T20:18:55.446Z,1.80
2018-12-13T20:21:25.471Z,1.80
2018-12-13T20:23:54.618Z,1.90
2018-12-13T20:26:23.533Z,1.80
2018-12-13T20:28:52.509Z,1.80
2018-12-13T20:31:23.543Z,1.80
2018-12-13T20:33:52.637Z,1.80
2018-12-13T20:36:24.922Z,1.80
2018-12-13T20:38:54.931Z,1.90
2018-12-13T20:41:23.903Z,1.90
2018-12-13T20:43:52.911Z,1.80
2018-12-13T20:46:21.974Z,1.80
2018-12-13T20:48:50.908Z,1.80
2018-12-13T20:51:20.863Z,1.80
2018-12-13T20:53:49.832Z,1.70
2018-12-13T21:03:41.520Z,1.70
2018-12-13T21:06:10.453Z,1.70
2018-12-13T21:08:39.434Z,1.70
2018-12-13T21:11:08.586Z,1.80
2018-12-13T21:13:38.680Z,1.80
2018-12-13T21:16:07.590Z,1.90
2018-12-13T21:18:36.675Z,1.80
2018-12-13T21:21:06.657Z,1.80
2018-12-13T21:23:35.583Z,1.90
2018-12-13T21:26:04.631Z,1.90
2018-12-13T21:28:33.956Z,1.90
2018-12-13T21:31:02.948Z,1.90
2018-12-13T21:33:32.000Z,2.00
2018-12-13T21:36:02.228Z,2.00
2018-12-13T21:38:31.926Z,1.90
2018-12-13T21:41:02.229Z,1.90
2018-12-13T21:43:31.273Z,2.00
2018-12-13T21:46:00.222Z,2.00
2018-12-13T21:48:29.307Z,1.90
2018-12-13T21:50:58.434Z,2.00
2018-12-13T21:53:27.829Z,2.00
2018-12-13T21:55:56.720Z,2.00
2018-12-13T21:58:25.706Z,2.00
2018-12-13T22:00:54.942Z,2.00
2018-12-13T22:03:23.932Z,2.00
2018-12-13T22:05:52.921Z,2.00
2018-12-13T22:08:25.008Z,2.00
2018-12-13T22:10:53.983Z,2.00
2018-12-13T22:13:24.083Z,2.00
2018-12-13T22:15:53.073Z,2.00
2018-12-13T22:18:23.198Z,2.00
2018-12-13T22:20:52.099Z,2.10
2018-12-13T22:23:23.744Z,2.00
2018-12-13T22:25:52.627Z,1.90
2018-12-13T22:28:21.624Z,1.80
2018-12-13T22:30:50.528Z,1.70
2018-12-13T22:33:19.471Z,1.60
2018-12-13T22:35:48.525Z,1.60
2018-12-13T22:38:17.632Z,1.50
2018-12-13T22:40:46.836Z,1.50
2018-12-13T22:43:20.529Z,1.50
2018-12-13T22:45:46.717Z,1.40
2018-12-13T22:48:16.675Z,1.40
2018-12-13T22:50:45.640Z,1.40
2018-12-13T22:53:14.658Z,1.30
2018-12-13T22:55:43.443Z,1.30
2018-12-13T22:58:12.367Z,1.30
2018-12-13T23:00:42.186Z,1.30
2018-12-13T23:03:13.451Z,1.20
2018-12-13T23:05:45.311Z,1.10
2018-12-13T23:08:15.101Z,1.00
2018-12-13T23:10:44.018Z,1.00
2018-12-13T23:13:12.909Z,1.00
2018-12-13T23:15:41.845Z,0.90
2018-12-13T23:18:10.828Z,0.90
2018-12-13T23:20:39.842Z,0.80
2018-12-13T23:23:08.668Z,0.90
2018-12-13T23:25:37.533Z,0.90
2018-12-13T23:28:06.365Z,0.80
2018-12-13T23:30:35.247Z,0.70
2018-12-13T23:33:04.190Z,0.70
2018-12-13T23:35:33.016Z,0.70
2018-12-13T23:38:01.940Z,0.80
2018-12-13T23:40:30.936Z,0.70
2018-12-13T23:42:59.909Z,0.80
2018-12-13T23:45:28.816Z,0.70
2018-12-13T23:47:57.715Z,0.70
2018-12-13T23:50:26.612Z,0.60
2018-12-13T23:52:57.821Z,0.60
2018-12-13T23:55:26.676Z,0.60
2018-12-13T23:57:55.520Z,0.50
